Time;durP1;ratioP1;P1;durP2;ratioP2;P2;SDS_P1;SDS_P2;PMS_P1;PMS_P2;Temp;Humidity;BMP_temperature;BMP_pressure;BME280_temperature;BME280_humidity;BME280_pressure;Samples;Min_cycle;Max_cycle;Signal;HPM_P1;HPM_P2
2021/06/15 00:02:18;;;;;;;20.50;18.70;;;;;;;;;;5052682;28;20452;-65
2021/06/15 00:04:45;;;;;;;19.60;18.07;;;;;;;;;;5051628;28;20460;-63
2021/06/15 00:07:14;;;;;;;21.07;18.93;;;;;;;;;;5048869;28;20456;-65
2021/06/15 00:09:41;;;;;;;21.70;18.57;;;;;;;;;;5032505;28;20469;-63
2021/06/15 00:12:09;;;;;;;23.40;17.90;;;;;;;;;;5051325;28;20925;-64
2021/06/15 00:14:36;;;;;;;18.33;17.03;;;;;;;;;;5052468;28;20448;-67
2021/06/15 00:17:03;;;;;;;21.07;19.10;;;;;;;;;;5050344;28;20458;-63
2021/06/15 00:19:30;;;;;;;20.17;18.20;;;;;;;;;;5050670;28;20488;-63
2021/06/15 00:21:57;;;;;;;19.30;17.43;;;;;;;;;;5051384;28;20947;-64
2021/06/15 00:24:26;;;;;;;18.97;17.10;;;;;;;;;;5052116;28;20454;-67
2021/06/15 00:26:53;;;;;;;18.10;16.57;;;;;;;;;;5051153;28;20460;-63
2021/06/15 00:29:20;;;;;;;18.80;17.33;;;;;;;;;;5051836;28;21008;-64
2021/06/15 00:31:47;;;;;;;18.53;16.80;;;;;;;;;;5039222;28;20453;-63
2021/06/15 00:34:14;;;;;;;19.37;17.77;;;;;;;;;;5041546;28;20754;-63
2021/06/15 00:36:41;;;;;;;18.50;16.83;;;;;;;;;;5043741;28;20462;-64
2021/06/15 00:39:08;;;;;;;19.73;17.93;;;;;;;;;;5053116;28;20495;-63
2021/06/15 00:41:37;;;;;;;17.77;16.23;;;;;;;;;;5052908;28;20444;-64
2021/06/15 00:44:04;;;;;;;18.90;17.50;;;;;;;;;;5051959;28;20448;-63
2021/06/15 00:46:31;;;;;;;19.70;18.00;;;;;;;;;;5048000;28;20459;-63
2021/06/15 00:48:58;;;;;;;18.77;17.20;;;;;;;;;;5031641;28;20999;-63
2021/06/15 00:51:25;;;;;;;20.67;18.70;;;;;;;;;;5040222;28;20451;-63
2021/06/15 00:53:53;;;;;;;20.27;18.13;;;;;;;;;;5051348;28;20458;-63
2021/06/15 00:56:20;;;;;;;20.20;18.47;;;;;;;;;;5050432;28;20459;-63
2021/06/15 00:58:50;;;;;;;20.57;18.73;;;;;;;;;;5051568;28;20455;-63
2021/06/15 01:01:17;;;;;;;20.53;18.60;;;;;;;;;;5045168;28;20450;-64
2021/06/15 01:03:45;;;;;;;19.40;17.70;;;;;;;;;;5051070;28;20448;-63
2021/06/15 01:06:14;;;;;;;19.60;17.90;;;;;;;;;;5044097;28;20458;-64
2021/06/15 01:08:43;;;;;;;20.07;18.07;;;;;;;;;;5051952;28;20448;-71
2021/06/15 01:11:17;;;;;;;20.07;17.67;;;;;;;;;;5047445;28;20456;-63
2021/06/15 01:13:53;;;;;;;19.67;18.00;;;;;;;;;;5032407;28;20435;-63
2021/06/15 01:16:22;;;;;;;19.13;17.13;;;;;;;;;;5047592;28;20439;-64
2021/06/15 01:18:52;;;;;;;18.53;16.93;;;;;;;;;;5045047;28;20444;-63
2021/06/15 01:21:20;;;;;;;19.37;17.70;;;;;;;;;;5051904;28;20935;-64
2021/06/15 01:24:00;;;;;;;18.10;16.50;;;;;;;;;;5035714;28;20540;-63
2021/06/15 01:26:35;;;;;;;18.07;16.27;;;;;;;;;;5031874;28;20465;-63
2021/06/15 01:29:05;;;;;;;18.50;16.80;;;;;;;;;;5050778;28;20479;-63
2021/06/15 01:31:36;;;;;;;17.53;16.03;;;;;;;;;;5054399;28;20447;-63
2021/06/15 01:34:04;;;;;;;18.10;16.37;;;;;;;;;;5055025;28;20448;-63
2021/06/15 01:36:33;;;;;;;17.23;15.73;;;;;;;;;;5054492;28;20939;-63
2021/06/15 01:39:02;;;;;;;18.70;16.90;;;;;;;;;;5053028;28;20986;-64
2021/06/15 01:41:32;;;;;;;16.73;15.13;;;;;;;;;;5055007;28;20448;-62
2021/06/15 01:44:02;;;;;;;17.53;16.10;;;;;;;;;;5054982;28;20459;-63
2021/06/15 01:46:33;;;;;;;18.27;16.13;;;;;;;;;;5054300;28;20452;-64
2021/06/15 01:49:04;;;;;;;19.60;17.80;;;;;;;;;;5053987;28;20478;-68
2021/06/15 01:51:32;;;;;;;17.90;16.50;;;;;;;;;;5054818;28;20431;-63
2021/06/15 01:54:08;;;;;;;18.60;16.83;;;;;;;;;;5054383;28;20454;-63
2021/06/15 01:56:37;;;;;;;18.00;16.27;;;;;;;;;;5054497;28;20530;-63
2021/06/15 01:59:05;;;;;;;18.33;16.70;;;;;;;;;;5054016;28;20467;-65
2021/06/15 02:01:35;;;;;;;18.23;16.53;;;;;;;;;;5054691;28;20518;-77
2021/06/15 02:04:03;;;;;;;16.93;15.23;;;;;;;;;;5054407;28;20448;-74
2021/06/15 02:06:30;;;;;;;16.97;15.47;;;;;;;;;;5052965;28;20455;-71
2021/06/15 02:08:58;;;;;;;16.87;15.37;;;;;;;;;;5054459;28;20472;-76
2021/06/15 02:11:28;;;;;;;16.30;14.67;;;;;;;;;;5052769;28;20456;-71
2021/06/15 02:13:56;;;;;;;15.40;14.10;;;;;;;;;;5053132;28;20459;-71
2021/06/15 02:16:24;;;;;;;17.53;15.70;;;;;;;;;;5053496;28;20534;-66
2021/06/15 02:18:55;;;;;;;16.43;14.77;;;;;;;;;;5054116;28;20459;-74
2021/06/15 02:21:23;;;;;;;15.53;14.23;;;;;;;;;;5039575;28;20484;-75
2021/06/15 02:23:52;;;;;;;14.23;13.03;;;;;;;;;;5036872;28;20481;-75
2021/06/15 02:26:21;;;;;;;15.53;13.80;;;;;;;;;;5052830;28;20443;-70
2021/06/15 02:28:48;;;;;;;15.40;13.90;;;;;;;;;;5053553;28;20444;-69
2021/06/15 02:31:16;;;;;;;14.30;12.90;;;;;;;;;;5054003;28;20950;-69
2021/06/15 02:33:47;;;;;;;14.80;13.50;;;;;;;;;;5050666;28;20456;-70
2021/06/15 02:36:19;;;;;;;14.13;12.17;;;;;;;;;;5053540;28;20448;-72
2021/06/15 02:38:48;;;;;;;14.30;13.00;;;;;;;;;;5053767;28;20428;-76
2021/06/15 02:41:16;;;;;;;13.70;12.50;;;;;;;;;;5056890;28;20483;-70
2021/06/15 02:43:43;;;;;;;13.50;12.20;;;;;;;;;;5053036;28;20951;-71
2021/06/15 02:46:14;;;;;;;13.10;11.80;;;;;;;;;;5053008;28;20458;-74
2021/06/15 02:48:43;;;;;;;13.27;12.00;;;;;;;;;;5052940;28;20815;-76
2021/06/15 02:51:10;;;;;;;13.83;11.43;;;;;;;;;;5053602;28;20487;-69
2021/06/15 02:53:41;;;;;;;13.40;12.00;;;;;;;;;;5054025;28;20470;-72
2021/06/15 02:56:11;;;;;;;11.37;10.40;;;;;;;;;;5035607;28;20812;-68
2021/06/15 02:58:38;;;;;;;15.53;11.70;;;;;;;;;;5033713;28;20475;-75
2021/06/15 03:01:05;;;;;;;13.83;10.93;;;;;;;;;;5034446;28;20486;-76
2021/06/15 03:03:32;;;;;;;12.17;10.60;;;;;;;;;;5049471;28;20977;-66
2021/06/15 03:05:59;;;;;;;11.47;10.40;;;;;;;;;;5052376;28;20452;-72
2021/06/15 03:08:26;;;;;;;12.57;11.33;;;;;;;;;;5053519;28;20907;-70
2021/06/15 03:10:55;;;;;;;15.83;10.77;;;;;;;;;;5052531;28;20478;-72
2021/06/15 03:13:25;;;;;;;11.33;10.27;;;;;;;;;;5053731;28;20444;-74
2021/06/15 03:15:53;;;;;;;11.23;9.60;;;;;;;;;;5051288;28;20482;-71
2021/06/15 03:18:27;;;;;;;11.50;10.60;;;;;;;;;;5053348;28;21013;-73
2021/06/15 03:20:56;;;;;;;10.20;9.30;;;;;;;;;;5052960;28;20484;-74
2021/06/15 03:23:31;;;;;;;14.20;10.67;;;;;;;;;;5053478;28;20456;-73
2021/06/15 03:26:02;;;;;;;10.57;9.67;;;;;;;;;;5040268;28;20948;-73
2021/06/15 03:28:31;;;;;;;10.33;9.27;;;;;;;;;;5035747;28;20472;-68
2021/06/15 03:30:58;;;;;;;9.60;8.80;;;;;;;;;;5044017;28;20470;-75
2021/06/15 03:33:26;;;;;;;10.40;9.50;;;;;;;;;;5052889;28;20931;-72
2021/06/15 03:35:55;;;;;;;8.40;7.80;;;;;;;;;;5051534;28;20827;-69
2021/06/15 03:38:24;;;;;;;9.63;8.67;;;;;;;;;;5052584;28;20464;-74
2021/06/15 03:40:53;;;;;;;9.00;8.03;;;;;;;;;;5051735;28;20495;-71
2021/06/15 03:43:21;;;;;;;10.20;8.70;;;;;;;;;;5052148;28;20462;-70
2021/06/15 03:45:49;;;;;;;9.30;8.30;;;;;;;;;;5044144;28;20449;-75
2021/06/15 03:48:17;;;;;;;13.93;8.47;;;;;;;;;;5032303;28;20457;-74
2021/06/15 03:50:44;;;;;;;9.30;8.30;;;;;;;;;;5039395;28;20471;-74
2021/06/15 03:53:12;;;;;;;9.30;8.10;;;;;;;;;;5052456;28;20451;-73
2021/06/15 03:55:41;;;;;;;9.37;8.40;;;;;;;;;;5050318;28;20455;-72
2021/06/15 03:58:10;;;;;;;9.10;7.97;;;;;;;;;;5032289;28;20445;-74
2021/06/15 04:00:39;;;;;;;9.00;8.30;;;;;;;;;;5036599;28;20994;-69
2021/06/15 04:03:09;;;;;;;9.90;8.90;;;;;;;;;;5052443;28;20452;-73
2021/06/15 04:05:37;;;;;;;10.00;7.73;;;;;;;;;;5051387;28;20448;-70
2021/06/15 04:08:06;;;;;;;9.43;8.10;;;;;;;;;;5052159;28;20538;-75
2021/06/15 04:10:33;;;;;;;8.70;7.90;;;;;;;;;;5051350;28;20490;-69
2021/06/15 04:13:02;;;;;;;9.30;8.53;;;;;;;;;;5052467;28;20475;-66
2021/06/15 04:15:30;;;;;;;9.50;8.50;;;;;;;;;;5051280;28;20448;-66
2021/06/15 04:18:00;;;;;;;8.50;7.70;;;;;;;;;;5053045;28;20479;-65
2021/06/15 04:20:29;;;;;;;9.17;8.27;;;;;;;;;;5051986;28;20498;-65
2021/06/15 04:22:57;;;;;;;9.00;8.40;;;;;;;;;;5052657;28;20471;-65
2021/06/15 04:25:27;;;;;;;9.13;8.33;;;;;;;;;;5050442;28;20463;-63
2021/06/15 04:27:54;;;;;;;9.10;8.27;;;;;;;;;;5051761;28;20456;-63
2021/06/15 04:30:21;;;;;;;9.00;8.20;;;;;;;;;;5052198;28;20486;-64
2021/06/15 04:32:51;;;;;;;9.70;7.57;;;;;;;;;;5052896;28;20454;-64
2021/06/15 04:35:24;;;;;;;8.17;7.47;;;;;;;;;;5052371;28;20943;-64
2021/06/15 04:37:53;;;;;;;6.43;5.93;;;;;;;;;;5033123;28;20456;-64
2021/06/15 04:40:22;;;;;;;7.40;6.00;;;;;;;;;;5052146;22;21340;-62
2021/06/15 04:42:57;;;;;;;5.43;4.77;;;;;;;;;;5049676;28;20460;-61
2021/06/15 04:45:26;;;;;;;4.03;3.20;;;;;;;;;;5047284;28;20457;-63
2021/06/15 04:48:00;;;;;;;4.43;3.50;;;;;;;;;;5049017;28;20458;-63
2021/06/15 04:50:30;;;;;;;5.70;3.97;;;;;;;;;;5050988;28;20464;-65
2021/06/15 04:52:57;;;;;;;5.67;2.90;;;;;;;;;;5051190;28;20459;-64
2021/06/15 04:55:27;;;;;;;4.97;2.93;;;;;;;;;;5050578;28;20451;-63
2021/06/15 04:57:56;;;;;;;6.07;2.80;;;;;;;;;;5051604;28;20452;-63
2021/06/15 05:00:24;;;;;;;5.27;1.90;;;;;;;;;;5048800;28;20497;-64
2021/06/15 05:02:51;;;;;;;5.53;2.20;;;;;;;;;;5041131;28;20448;-63
2021/06/15 05:05:19;;;;;;;7.50;2.40;;;;;;;;;;5047273;28;21156;-63
2021/06/15 05:07:49;;;;;;;6.70;2.37;;;;;;;;;;5031347;28;20475;-63
2021/06/15 05:10:16;;;;;;;5.10;2.43;;;;;;;;;;5034048;28;20506;-63
2021/06/15 05:12:44;;;;;;;5.20;2.00;;;;;;;;;;5051430;28;20463;-64
2021/06/15 05:15:12;;;;;;;3.47;1.50;;;;;;;;;;5050593;28;20454;-64
2021/06/15 05:17:41;;;;;;;3.50;1.83;;;;;;;;;;5048737;28;20471;-64
2021/06/15 05:20:09;;;;;;;4.97;1.83;;;;;;;;;;5049079;28;20471;-61
2021/06/15 05:22:41;;;;;;;5.03;2.30;;;;;;;;;;5051034;28;20444;-64
2021/06/15 05:25:11;;;;;;;3.63;1.93;;;;;;;;;;5032181;28;20433;-62
2021/06/15 05:27:38;;;;;;;6.17;1.80;;;;;;;;;;5031340;28;20457;-63
2021/06/15 05:30:06;;;;;;;5.20;2.30;;;;;;;;;;5050356;28;20518;-64
2021/06/15 05:32:33;;;;;;;4.30;1.53;;;;;;;;;;5051451;28;20470;-63
2021/06/15 05:35:01;;;;;;;4.97;1.67;;;;;;;;;;5050311;28;20463;-65
2021/06/15 05:37:29;;;;;;;4.03;1.97;;;;;;;;;;5049564;28;20558;-63
2021/06/15 05:39:56;;;;;;;6.57;2.00;;;;;;;;;;5033745;28;20515;-63
2021/06/15 05:42:25;;;;;;;2.50;1.63;;;;;;;;;;5031442;28;20559;-63
2021/06/15 05:44:52;;;;;;;4.13;2.00;;;;;;;;;;5046802;28;20458;-63
2021/06/15 05:47:19;;;;;;;6.60;2.10;;;;;;;;;;5050418;28;20454;-62
2021/06/15 05:49:46;;;;;;;5.00;1.70;;;;;;;;;;5050807;28;20459;-63
2021/06/15 05:52:14;;;;;;;4.80;1.57;;;;;;;;;;5051092;28;20452;-63
2021/06/15 05:54:41;;;;;;;2.20;1.47;;;;;;;;;;5050571;28;20448;-63
2021/06/15 05:57:09;;;;;;;3.70;1.60;;;;;;;;;;5050285;28;20819;-63
2021/06/15 05:59:38;;;;;;;3.03;1.40;;;;;;;;;;5050203;28;20482;-63
2021/06/15 06:02:06;;;;;;;3.93;1.80;;;;;;;;;;5040550;28;20505;-63
2021/06/15 06:04:36;;;;;;;4.30;1.70;;;;;;;;;;5050889;28;20456;-63
2021/06/15 06:09:47;;;;;;;3.57;1.87;;;;;;;;;;5035740;28;20487;-63
2021/06/15 06:12:14;;;;;;;4.47;1.80;;;;;;;;;;5050209;28;20456;-63
2021/06/15 06:14:43;;;;;;;2.87;1.50;;;;;;;;;;5050321;28;20452;-63
2021/06/15 06:17:10;;;;;;;2.80;1.60;;;;;;;;;;5049715;28;20459;-63
2021/06/15 06:19:37;;;;;;;2.97;1.33;;;;;;;;;;5052998;28;20468;-63
2021/06/15 06:22:05;;;;;;;4.07;1.53;;;;;;;;;;5054436;28;20471;-63
2021/06/15 06:24:32;;;;;;;2.70;1.80;;;;;;;;;;5051777;28;21025;-62
2021/06/15 06:26:59;;;;;;;2.50;1.50;;;;;;;;;;5053344;28;20818;-63
2021/06/15 06:29:26;;;;;;;3.23;1.67;;;;;;;;;;5054052;28;20452;-63
2021/06/15 06:31:55;;;;;;;3.20;1.57;;;;;;;;;;5053896;28;20483;-63
2021/06/15 06:34:22;;;;;;;3.00;1.40;;;;;;;;;;5053943;28;20486;-63
2021/06/15 06:36:49;;;;;;;3.67;1.40;;;;;;;;;;5052795;28;20458;-64
2021/06/15 06:39:16;;;;;;;4.50;1.80;;;;;;;;;;5054038;28;20462;-63
2021/06/15 06:41:43;;;;;;;4.70;2.07;;;;;;;;;;5053180;28;20496;-63
2021/06/15 06:44:10;;;;;;;7.50;2.33;;;;;;;;;;5053923;28;20946;-63
2021/06/15 06:46:37;;;;;;;5.37;1.80;;;;;;;;;;5052857;28;20453;-65
2021/06/15 06:49:06;;;;;;;4.00;1.83;;;;;;;;;;5053701;28;20428;-64
2021/06/15 06:51:33;;;;;;;5.50;1.90;;;;;;;;;;5033660;28;20469;-64
2021/06/15 06:54:01;;;;;;;2.90;1.63;;;;;;;;;;5034245;28;20450;-64
2021/06/15 06:56:28;;;;;;;5.00;2.13;;;;;;;;;;5039796;28;20459;-64
2021/06/15 06:58:55;;;;;;;4.20;1.73;;;;;;;;;;5053344;28;20454;-66
2021/06/15 07:01:22;;;;;;;4.20;1.90;;;;;;;;;;5052623;28;20483;-64
2021/06/15 07:03:49;;;;;;;6.07;2.00;;;;;;;;;;5053330;28;20452;-64
2021/06/15 07:06:18;;;;;;;5.40;1.80;;;;;;;;;;5052339;28;20466;-64
2021/06/15 07:08:45;;;;;;;3.70;1.47;;;;;;;;;;5053517;28;20966;-63
2021/06/15 07:11:13;;;;;;;3.43;1.57;;;;;;;;;;5053071;28;20534;-64
2021/06/15 07:13:40;;;;;;;2.80;1.77;;;;;;;;;;5053117;28;20458;-64
2021/06/15 07:16:08;;;;;;;4.33;1.37;;;;;;;;;;5052108;28;20452;-64
2021/06/15 07:18:36;;;;;;;3.30;1.30;;;;;;;;;;5053413;28;20502;-64
2021/06/15 07:21:04;;;;;;;2.90;1.40;;;;;;;;;;5049945;28;20480;-63
2021/06/15 07:23:32;;;;;;;3.77;1.80;;;;;;;;;;5053468;28;20492;-64
2021/06/15 07:25:59;;;;;;;2.40;1.23;;;;;;;;;;5051734;28;20454;-63
2021/06/15 07:28:26;;;;;;;3.57;1.47;;;;;;;;;;5052582;28;20451;-63
2021/06/15 07:30:54;;;;;;;4.90;2.20;;;;;;;;;;5052444;28;21029;-63
2021/06/15 07:33:21;;;;;;;4.60;2.20;;;;;;;;;;5052872;28;20450;-63
2021/06/15 07:35:48;;;;;;;5.83;2.80;;;;;;;;;;5051662;28;20470;-64
2021/06/15 07:38:15;;;;;;;5.90;2.37;;;;;;;;;;5053008;28;20452;-62
2021/06/15 07:40:43;;;;;;;6.80;3.10;;;;;;;;;;5052117;28;20476;-64
2021/06/15 07:43:11;;;;;;;4.07;1.73;;;;;;;;;;5052815;28;20483;-62
2021/06/15 07:45:39;;;;;;;3.60;1.60;;;;;;;;;;5052240;28;20551;-64
2021/06/15 07:48:07;;;;;;;3.80;1.90;;;;;;;;;;5053045;28;20454;-64
2021/06/15 07:50:34;;;;;;;4.10;1.40;;;;;;;;;;5052522;28;20482;-65
2021/06/15 07:53:01;;;;;;;2.50;1.40;;;;;;;;;;5052747;28;20454;-65
2021/06/15 07:55:28;;;;;;;2.83;1.67;;;;;;;;;;5052041;28;20459;-67
2021/06/15 07:57:57;;;;;;;5.33;1.80;;;;;;;;;;5052313;28;20469;-65
2021/06/15 08:00:24;;;;;;;2.80;1.30;;;;;;;;;;5051907;28;20476;-66
2021/06/15 08:02:51;;;;;;;3.20;1.40;;;;;;;;;;5052286;28;20486;-65
2021/06/15 08:05:18;;;;;;;2.90;1.43;;;;;;;;;;5050905;28;20840;-65
2021/06/15 08:07:49;;;;;;;3.30;1.33;;;;;;;;;;5042721;28;20825;-65
2021/06/15 08:10:18;;;;;;;4.47;1.57;;;;;;;;;;5039903;28;20471;-64
2021/06/15 08:12:46;;;;;;;3.27;1.60;;;;;;;;;;5052123;28;20534;-65
2021/06/15 08:15:14;;;;;;;3.20;1.23;;;;;;;;;;5051107;28;20468;-64
2021/06/15 08:17:41;;;;;;;6.17;1.53;;;;;;;;;;5051598;28;20459;-71
2021/06/15 08:20:10;;;;;;;2.90;1.17;;;;;;;;;;5051514;28;20482;-65
2021/06/15 08:22:37;;;;;;;4.60;1.73;;;;;;;;;;5051545;28;20502;-65
2021/06/15 08:25:05;;;;;;;4.50;1.67;;;;;;;;;;5052104;28;20466;-66
2021/06/15 08:27:34;;;;;;;3.63;1.87;;;;;;;;;;5051039;28;20452;-72
2021/06/15 08:30:01;;;;;;;5.40;2.00;;;;;;;;;;5051326;28;20906;-65
2021/06/15 08:32:29;;;;;;;4.20;1.53;;;;;;;;;;5051667;28;20448;-66
2021/06/15 08:34:56;;;;;;;2.80;1.37;;;;;;;;;;5053017;28;20444;-65
2021/06/15 08:37:24;;;;;;;3.93;1.63;;;;;;;;;;5050986;28;20942;-65
2021/06/15 08:39:51;;;;;;;3.97;1.50;;;;;;;;;;5050771;28;20456;-66
2021/06/15 08:42:18;;;;;;;3.47;1.47;;;;;;;;;;5051763;28;20468;-65
2021/06/15 08:44:46;;;;;;;2.47;1.60;;;;;;;;;;5051591;28;20456;-65
2021/06/15 08:47:15;;;;;;;3.43;1.57;;;;;;;;;;5051191;28;20448;-65
2021/06/15 08:49:44;;;;;;;3.53;1.33;;;;;;;;;;5041523;28;20457;-66
2021/06/15 08:52:11;;;;;;;3.97;1.33;;;;;;;;;;5031755;28;20452;-65
2021/06/15 08:54:39;;;;;;;2.93;1.27;;;;;;;;;;5045920;28;20452;-69
2021/06/15 08:57:06;;;;;;;3.50;1.50;;;;;;;;;;5050805;28;20502;-65
2021/06/15 08:59:34;;;;;;;3.30;1.20;;;;;;;;;;5044860;28;20454;-65
2021/06/15 09:02:05;;;;;;;2.70;1.00;;;;;;;;;;5050450;28;20488;-66
2021/06/15 09:04:32;;;;;;;3.10;1.10;;;;;;;;;;5047166;28;20523;-65
2021/06/15 09:07:01;;;;;;;3.00;1.60;;;;;;;;;;5047147;28;20448;-65
2021/06/15 09:09:38;;;;;;;4.80;1.50;;;;;;;;;;5031620;28;20452;-65
2021/06/15 09:12:06;;;;;;;3.53;1.10;;;;;;;;;;5045871;28;20447;-66
2021/06/15 09:14:40;;;;;;;3.30;1.67;;;;;;;;;;5031365;28;20816;-68
2021/06/15 09:17:10;;;;;;;3.40;1.40;;;;;;;;;;5047963;28;20532;-69
2021/06/15 09:19:38;;;;;;;2.60;1.07;;;;;;;;;;5050682;28;20455;-67
2021/06/15 09:22:06;;;;;;;2.80;1.10;;;;;;;;;;5051503;28;20475;-68
2021/06/15 09:24:34;;;;;;;3.93;1.17;;;;;;;;;;5050762;28;20452;-65
2021/06/15 09:27:05;;;;;;;5.00;1.03;;;;;;;;;;5050222;28;20970;-65
2021/06/15 09:29:50;;;;;;;2.60;1.23;;;;;;;;;;5051486;28;20436;-65
2021/06/15 09:32:18;;;;;;;4.00;1.40;;;;;;;;;;5050460;28;20448;-65
2021/06/15 09:34:50;;;;;;;3.07;1.30;;;;;;;;;;5050584;28;20946;-67
2021/06/15 09:37:27;;;;;;;3.30;1.10;;;;;;;;;;5050446;28;20835;-69
2021/06/15 09:39:54;;;;;;;2.67;0.90;;;;;;;;;;5050850;28;20467;-65
2021/06/15 09:42:21;;;;;;;2.80;1.27;;;;;;;;;;5050584;28;21018;-65
2021/06/15 09:44:48;;;;;;;2.80;1.27;;;;;;;;;;5050745;28;20452;-66
2021/06/15 09:47:15;;;;;;;2.63;1.00;;;;;;;;;;5034933;28;20459;-69
2021/06/15 09:49:44;;;;;;;3.37;1.70;;;;;;;;;;5033175;28;20445;-65
2021/06/15 09:52:12;;;;;;;6.80;1.40;;;;;;;;;;5051649;28;20447;-65
2021/06/15 09:54:40;;;;;;;3.37;1.00;;;;;;;;;;5054335;28;20451;-63
2021/06/15 09:57:09;;;;;;;5.70;1.33;;;;;;;;;;5053818;28;20448;-64
2021/06/15 09:59:36;;;;;;;4.07;1.23;;;;;;;;;;5041552;28;21021;-67
2021/06/15 10:02:03;;;;;;;3.10;1.20;;;;;;;;;;5038084;28;20479;-64
2021/06/15 10:04:30;;;;;;;3.10;1.50;;;;;;;;;;5055867;28;20931;-67
2021/06/15 10:06:58;;;;;;;4.93;1.50;;;;;;;;;;5052994;28;20458;-66
2021/06/15 10:09:26;;;;;;;3.57;1.03;;;;;;;;;;5054798;28;20452;-65
2021/06/15 10:11:55;;;;;;;2.60;1.10;;;;;;;;;;5053947;28;20495;-64
2021/06/15 10:14:23;;;;;;;8.40;1.70;;;;;;;;;;5054584;28;20965;-65
2021/06/15 10:16:50;;;;;;;9.57;2.20;;;;;;;;;;5053989;28;20452;-69
2021/06/15 10:19:17;;;;;;;8.53;1.63;;;;;;;;;;5054510;28;20456;-69
2021/06/15 10:21:44;;;;;;;4.20;1.20;;;;;;;;;;5053469;28;20482;-68
2021/06/15 10:24:12;;;;;;;8.13;1.93;;;;;;;;;;5054436;28;20451;-69
2021/06/15 10:26:39;;;;;;;5.97;1.70;;;;;;;;;;5053159;28;20463;-69
2021/06/15 10:29:12;;;;;;;4.50;1.10;;;;;;;;;;5053991;28;20443;-68
2021/06/15 10:31:41;;;;;;;4.27;1.20;;;;;;;;;;5052208;28;20474;-68
2021/06/15 10:34:08;;;;;;;3.50;1.20;;;;;;;;;;5053423;28;20444;-69
2021/06/15 10:36:40;;;;;;;3.83;1.10;;;;;;;;;;5052395;28;20454;-68
2021/06/15 10:39:08;;;;;;;2.80;1.10;;;;;;;;;;5054087;28;20443;-68
2021/06/15 10:41:35;;;;;;;2.70;1.40;;;;;;;;;;5109265;22;20485;-69
2021/06/15 10:44:02;;;;;;;3.20;1.00;;;;;;;;;;5091779;28;20486;-68
2021/06/15 10:46:35;;;;;;;3.60;1.10;;;;;;;;;;5084242;28;20458;-67
2021/06/15 10:49:02;;;;;;;2.90;1.10;;;;;;;;;;5092238;28;20458;-69
2021/06/15 10:51:33;;;;;;;3.40;1.00;;;;;;;;;;5100123;28;20605;-68
2021/06/15 10:54:05;;;;;;;2.07;1.00;;;;;;;;;;5093922;28;20442;-68
2021/06/15 10:56:37;;;;;;;3.17;1.23;;;;;;;;;;5100727;28;20490;-69
2021/06/15 10:59:11;;;;;;;3.10;1.30;;;;;;;;;;5108350;28;20494;-69
2021/06/15 11:01:41;;;;;;;3.47;1.17;;;;;;;;;;5096081;28;20473;-68
2021/06/15 11:04:09;;;;;;;3.60;1.10;;;;;;;;;;5092983;28;20482;-69
2021/06/15 11:06:42;;;;;;;2.10;0.90;;;;;;;;;;5093123;28;20477;-69
2021/06/15 11:09:17;;;;;;;3.20;1.37;;;;;;;;;;5093488;28;20450;-69
2021/06/15 11:11:45;;;;;;;2.67;1.10;;;;;;;;;;5093323;28;20501;-69
2021/06/15 11:14:14;;;;;;;2.47;0.97;;;;;;;;;;5093068;28;20514;-68
2021/06/15 11:16:45;;;;;;;2.63;1.10;;;;;;;;;;5092554;28;20454;-68
2021/06/15 11:19:35;;;;;;;2.80;1.30;;;;;;;;;;5093559;28;20449;-68
2021/06/15 11:22:04;;;;;;;4.93;1.63;;;;;;;;;;5108770;28;21002;-69
2021/06/15 11:24:36;;;;;;;6.77;1.80;;;;;;;;;;5104815;28;20460;-68
2021/06/15 11:27:04;;;;;;;3.23;1.60;;;;;;;;;;5092059;28;20503;-67
2021/06/15 11:29:36;;;;;;;3.63;1.47;;;;;;;;;;5093044;28;20454;-67
2021/06/15 11:32:22;;;;;;;7.00;1.47;;;;;;;;;;5092995;28;20969;-67
2021/06/15 11:35:08;;;;;;;3.20;1.43;;;;;;;;;;5093193;28;20449;-66
2021/06/15 11:37:49;;;;;;;2.70;1.10;;;;;;;;;;5092051;28;20460;-66
2021/06/15 11:40:18;;;;;;;3.07;1.30;;;;;;;;;;5092945;28;20445;-66
2021/06/15 11:42:50;;;;;;;2.70;1.40;;;;;;;;;;5110298;28;20488;-67
2021/06/15 11:45:34;;;;;;;3.10;1.20;;;;;;;;;;5092256;28;20473;-66
2021/06/15 11:48:16;;;;;;;3.53;1.57;;;;;;;;;;5092779;28;20483;-66
2021/06/15 11:50:49;;;;;;;2.80;1.27;;;;;;;;;;5090107;28;20473;-66
2021/06/15 11:53:18;;;;;;;1.77;0.97;;;;;;;;;;5092919;28;20429;-66
2021/06/15 11:55:46;;;;;;;3.07;1.17;;;;;;;;;;5091966;28;20450;-66
2021/06/15 11:58:17;;;;;;;4.20;1.63;;;;;;;;;;5092657;28;20452;-66
2021/06/15 12:00:45;;;;;;;2.33;1.17;;;;;;;;;;5092707;28;20556;-65
2021/06/15 12:03:17;;;;;;;3.10;1.23;;;;;;;;;;5092988;28;20477;-65
2021/06/15 12:05:46;;;;;;;3.57;1.20;;;;;;;;;;5093049;28;20474;-67
2021/06/15 12:08:14;;;;;;;2.77;1.30;;;;;;;;;;5092276;28;20450;-67
2021/06/15 12:10:48;;;;;;;3.40;1.50;;;;;;;;;;5091531;28;20493;-67
2021/06/15 12:13:16;;;;;;;4.33;1.40;;;;;;;;;;5096224;28;20520;-67
2021/06/15 12:15:45;;;;;;;3.03;1.07;;;;;;;;;;5111019;28;20445;-66
2021/06/15 12:18:16;;;;;;;3.83;1.63;;;;;;;;;;5111843;28;20498;-67
2021/06/15 12:20:46;;;;;;;2.17;1.07;;;;;;;;;;5112244;28;20475;-67
2021/06/15 12:23:32;;;;;;;2.10;1.00;;;;;;;;;;5108038;28;20477;-67
2021/06/15 12:26:23;;;;;;;2.90;1.20;;;;;;;;;;5091760;28;20449;-66
2021/06/15 12:28:52;;;;;;;2.20;1.10;;;;;;;;;;5081212;28;20449;-66
2021/06/15 12:31:22;;;;;;;4.93;1.50;;;;;;;;;;5112217;28;20457;-66
2021/06/15 12:33:51;;;;;;;3.50;1.50;;;;;;;;;;5104308;28;20438;-67
2021/06/15 12:36:20;;;;;;;4.57;1.20;;;;;;;;;;5091347;28;20453;-66
2021/06/15 12:38:49;;;;;;;3.77;1.40;;;;;;;;;;5094569;28;20454;-67
2021/06/15 12:41:24;;;;;;;2.43;1.23;;;;;;;;;;5092036;28;20486;-66
2021/06/15 12:43:53;;;;;;;3.40;1.30;;;;;;;;;;5091322;28;21010;-66
2021/06/15 12:46:21;;;;;;;3.93;1.53;;;;;;;;;;5092866;28;20465;-67
2021/06/15 12:48:50;;;;;;;1.90;1.00;;;;;;;;;;5112107;28;20476;-67
2021/06/15 12:51:18;;;;;;;3.37;1.27;;;;;;;;;;5111168;28;20468;-67
2021/06/15 12:53:46;;;;;;;4.30;1.40;;;;;;;;;;5112267;28;20452;-67
2021/06/15 12:56:18;;;;;;;2.47;1.30;;;;;;;;;;5108952;28;20495;-66
2021/06/15 12:58:46;;;;;;;2.40;1.27;;;;;;;;;;5092107;28;20427;-66
2021/06/15 13:01:15;;;;;;;4.50;1.70;;;;;;;;;;5091893;28;20548;-66
2021/06/15 13:03:43;;;;;;;3.23;1.40;;;;;;;;;;5093834;28;20488;-66
2021/06/15 13:06:11;;;;;;;3.37;1.47;;;;;;;;;;5099731;28;20450;-66
2021/06/15 13:08:38;;;;;;;2.20;1.17;;;;;;;;;;5108013;28;20467;-67
2021/06/15 13:11:12;;;;;;;2.00;1.23;;;;;;;;;;5103540;28;20472;-66
2021/06/15 13:13:51;;;;;;;2.10;1.23;;;;;;;;;;5091614;28;20446;-67
2021/06/15 13:16:18;;;;;;;2.80;1.20;;;;;;;;;;5090254;28;20457;-66
2021/06/15 13:18:58;;;;;;;3.47;1.40;;;;;;;;;;5091649;28;20450;-66
2021/06/15 13:21:25;;;;;;;3.10;1.37;;;;;;;;;;5104628;28;21003;-67
2021/06/15 13:24:06;;;;;;;4.23;1.40;;;;;;;;;;5105444;28;20476;-67
2021/06/15 13:26:34;;;;;;;3.43;1.47;;;;;;;;;;5112508;28;20451;-67
2021/06/15 13:29:02;;;;;;;3.50;1.33;;;;;;;;;;5114187;28;20474;-67
2021/06/15 13:31:29;;;;;;;4.53;1.30;;;;;;;;;;5115332;28;21106;-67
2021/06/15 13:34:03;;;;;;;3.23;1.30;;;;;;;;;;5112894;28;20445;-67
2021/06/15 13:36:31;;;;;;;1.70;1.07;;;;;;;;;;5100588;28;20988;-67
2021/06/15 13:39:07;;;;;;;2.93;1.23;;;;;;;;;;5114759;28;20445;-67
2021/06/15 13:41:36;;;;;;;3.77;1.20;;;;;;;;;;5115998;28;20480;-67
2021/06/15 13:44:03;;;;;;;2.00;1.20;;;;;;;;;;5105977;28;20483;-67
2021/06/15 13:46:30;;;;;;;2.30;1.10;;;;;;;;;;5094463;28;20452;-67
2021/06/15 13:48:58;;;;;;;4.00;1.20;;;;;;;;;;5102486;28;20449;-67
2021/06/15 13:51:25;;;;;;;2.90;1.10;;;;;;;;;;5114589;28;20499;-67
2021/06/15 13:53:52;;;;;;;3.23;1.60;;;;;;;;;;5109003;28;20442;-67
2021/06/15 13:56:20;;;;;;;3.47;1.93;;;;;;;;;;5112615;28;20829;-67
2021/06/15 13:58:48;;;;;;;2.53;1.40;;;;;;;;;;5109299;28;20446;-67
2021/06/15 14:01:15;;;;;;;2.90;1.20;;;;;;;;;;5095206;28;20465;-67
2021/06/15 14:03:42;;;;;;;2.50;1.13;;;;;;;;;;5094802;28;20478;-67
2021/06/15 14:06:09;;;;;;;2.63;1.30;;;;;;;;;;5094166;28;20450;-67
2021/06/15 14:08:37;;;;;;;2.53;1.20;;;;;;;;;;5095306;28;20459;-67
2021/06/15 14:11:04;;;;;;;2.90;1.10;;;;;;;;;;5094947;28;20470;-67
2021/06/15 14:13:31;;;;;;;3.60;1.30;;;;;;;;;;5094821;28;20445;-67
2021/06/15 14:15:59;;;;;;;3.90;1.00;;;;;;;;;;5101071;28;20445;-67
2021/06/15 14:18:26;;;;;;;3.70;1.13;;;;;;;;;;5115044;28;20936;-67
2021/06/15 14:20:54;;;;;;;3.40;1.10;;;;;;;;;;5108717;28;20466;-67
2021/06/15 14:23:21;;;;;;;2.73;1.30;;;;;;;;;;5105357;28;21046;-67
2021/06/15 14:25:48;;;;;;;3.30;1.07;;;;;;;;;;5108867;28;20453;-67
2021/06/15 14:28:17;;;;;;;3.10;1.13;;;;;;;;;;5106023;28;20465;-67
2021/06/15 14:30:45;;;;;;;1.60;0.90;;;;;;;;;;5094991;28;20577;-67
2021/06/15 14:33:13;;;;;;;4.43;1.13;;;;;;;;;;5094581;28;20448;-66
2021/06/15 14:35:42;;;;;;;3.10;1.23;;;;;;;;;;5100240;28;20944;-65
2021/06/15 14:38:09;;;;;;;1.93;1.07;;;;;;;;;;5112374;28;20453;-67
2021/06/15 14:40:37;;;;;;;2.00;1.00;;;;;;;;;;5101028;28;20859;-65
2021/06/15 14:43:04;;;;;;;2.67;1.10;;;;;;;;;;5096745;28;20446;-66
2021/06/15 14:45:31;;;;;;;3.30;0.80;;;;;;;;;;5094008;28;20488;-66
2021/06/15 14:47:58;;;;;;;2.60;0.90;;;;;;;;;;5108595;28;20445;-67
2021/06/15 14:50:26;;;;;;;2.33;1.27;;;;;;;;;;5112706;28;20456;-66